EFKT

Kittila Airport

Kittila, Finland
METAR EFKT 250020Z AUTO 15008KT 5000 -RASN OVC004 00/M00 Q0987
Observed Flight Rules
Apr-25 @ 00:20 UTC (27 minutes ago) Instrument Flight Rules
Wind Visibility Clouds Conditions
150° at 8 knots 5,005 meters
  • Overcast at 400' AGL
  • Light Rain
  • Light Snow
Temperatures Readings
Current 0°C / 32°F
Dewpoint 0°C / 32°F
Humidity 100%
Altimeter 29.14" Hg
Pressure 987 hPa
Elevation 643
METAR EFKT 250020Z AUTO 15008KT 5000 -RASN OVC004 00/M00 Q0987
Observed Flight Rules
Apr-25 @ 00:20 UTC
(27 minutes ago)
LIFR
Wind Visibility
150° at 8 knots 5,005 meters
Clouds
  • Overcast at 400' AGL
Conditions
  • Light Rain
  • Light Snow
Temperature Dewpoint
0°C / 32°F 0°C / 32°F
Humidity Altimeter Pressure
100% 29.14" Hg 987 hPa